Time;durP1;ratioP1;P1;durP2;ratioP2;P2;SDS_P1;SDS_P2;PMS_P1;PMS_P2;Temp;Humidity;BMP_temperature;BMP_pressure;BME280_temperature;BME280_humidity;BME280_pressure;Samples;Min_cycle;Max_cycle;Signal;HPM_P1;HPM_P2
2022/09/10 00:00:00;;;;;;;;;;;;;;;;;;348603;28;959;-63
2022/09/10 00:00:10;;;;;;;;;;;;;;;;;;348673;28;905;-63
2022/09/10 00:00:21;;;;;;;;;;;;;;;;;;348659;28;833;-63
2022/09/10 00:00:33;;;;;;;;;;;;;;;;;;348627;28;1059;-63
2022/09/10 00:00:43;;;;;;;;;;;;;;;;;;348605;28;909;-63
2022/09/10 00:00:53;;;;;;;;;;;;;;;;;;348629;28;961;-63
2022/09/10 00:01:03;;;;;;;;;;;;;;;;;;348571;28;956;-62
2022/09/10 00:01:14;;;;;;;;;;;;;;;;;;348683;28;833;-63
2022/09/10 00:01:26;;;;;;;;;;;;;;;;;;348634;28;790;-63
2022/09/10 00:01:37;;;;;;;;;;;;;;;;;;348684;28;1017;-63
2022/09/10 00:01:47;;;;;;;;;;;;;;;;;;348632;28;1043;-63
2022/09/10 00:01:58;;;;;;;;;;;;;;;;;;348616;28;1035;-63
2022/09/10 00:02:08;;;;;;;;;;;;;;;;;;348622;28;964;-62
2022/09/10 00:02:18;;;;;;;;;;;;;;;;;;348625;28;870;-63
2022/09/10 00:02:28;;;;;;;;;;;;;;;;;;348653;28;990;-63
2022/09/10 00:02:38;;;;;;;;;;;;;;;;;;348662;28;913;-62
2022/09/10 00:02:49;;;;;;;;;;;;;;;;;;348652;28;813;-63
2022/09/10 00:03:02;;;;;;;;;;;;;;;;;;348651;28;928;-63
2022/09/10 00:03:12;;;;;;;;;;;;;;;;;;348599;28;999;-63
2022/09/10 00:03:23;;;;;;;;;;;;;;;;;;348657;28;873;-63
2022/09/10 00:03:33;;;;;;;;;;;;;;;;;;348644;28;979;-63
2022/09/10 00:03:43;;;;;;;;;;;;;;;;;;348667;28;948;-62
2022/09/10 00:03:54;;;;;;;;;;;;;;;;;;348529;28;1146;-63
2022/09/10 00:04:12;;;;;;;;;;;;;;;;;;348649;28;980;-63
2022/09/10 00:04:22;;;;;;;;;;;;;;;;;;348557;28;1545;-63
2022/09/10 00:04:33;;;;;;;;;;;;;;;;;;348656;28;786;-63
2022/09/10 00:04:43;;;;;;;;;;;;;;;;;;348658;28;964;-63
2022/09/10 00:04:53;;;;;;;;;;;;;;;;;;348679;28;837;-63
2022/09/10 00:05:04;;;;;;;;;;;;;;;;;;348595;28;917;-63
2022/09/10 00:05:14;;;;;;;;;;;;;;;;;;348603;28;952;-63
2022/09/10 00:05:24;;;;;;;;;;;;;;;;;;348637;28;972;-63
2022/09/10 00:05:39;;;;;;;;;;;;;;;;;;348680;28;916;-63
2022/09/10 00:05:49;;;;;;;;;;;;;;;;;;348611;28;925;-63
2022/09/10 00:06:01;;;;;;;;;;;;;;;;;;348637;28;1008;-63
2022/09/10 00:06:12;;;;;;;;;;;;;;;;;;348659;28;1040;-63
2022/09/10 00:06:29;;;;;;;;;;;;;;;;;;349170;28;1455;-63
2022/09/10 00:06:40;;;;;;;;;;;;;;;;;;349968;28;1007;-63
2022/09/10 00:06:50;;;;;;;;;;;;;;;;;;350053;28;1019;-63
2022/09/10 00:07:00;;;;;;;;;;;;;;;;;;350037;28;925;-63
2022/09/10 00:07:11;;;;;;;;;;;;;;;;;;349981;28;1173;-63
2022/09/10 00:07:21;;;;;;;;;;;;;;;;;;350031;28;825;-63
2022/09/10 00:07:32;;;;;;;;;;;;;;;;;;349964;28;940;-63
2022/09/10 00:07:42;;;;;;;;;;;;;;;;;;350020;28;921;-63
2022/09/10 00:07:52;;;;;;;;;;;;;;;;;;350031;28;1031;-63
2022/09/10 00:08:03;;;;;;;;;;;;;;;;;;350032;28;846;-63
2022/09/10 00:08:14;;;;;;;;;;;;;;;;;;348394;28;1327;-63
2022/09/10 00:08:24;;;;;;;;;;;;;;;;;;348590;28;996;-63
2022/09/10 00:08:35;;;;;;;;;;;;;;;;;;348650;28;1015;-63
2022/09/10 00:08:46;;;;;;;;;;;;;;;;;;348681;28;916;-63
2022/09/10 00:08:57;;;;;;;;;;;;;;;;;;348626;28;1035;-63
2022/09/10 00:09:08;;;;;;;;;;;;;;;;;;348649;28;960;-63
2022/09/10 00:09:18;;;;;;;;;;;;;;;;;;348601;28;941;-63
2022/09/10 00:09:28;;;;;;;;;;;;;;;;;;348560;28;936;-63
2022/09/10 00:09:38;;;;;;;;;;;;;;;;;;348635;28;1019;-63
2022/09/10 00:09:49;;;;;;;;;;;;;;;;;;348680;28;934;-63
2022/09/10 00:09:59;;;;;;;;;;;;;;;;;;348642;28;940;-63
2022/09/10 00:10:10;;;;;;;;;;;;;;;;;;348601;28;956;-63
2022/09/10 00:10:20;;;;;;;;;;;;;;;;;;348593;28;1906;-63
2022/09/10 00:10:30;;;;;;;;;;;;;;;;;;348684;28;861;-63
2022/09/10 00:10:45;;;;;;;;;;;;;;;;;;348669;28;948;-63
2022/09/10 00:10:56;;;;;;;;;;;;;;;;;;348389;28;1903;-63
2022/09/10 00:11:08;;;;;;;;;;;;;;;;;;349985;28;924;-63
2022/09/10 00:11:19;;;;;;;;;;;;;;;;;;350049;28;822;-63
2022/09/10 00:11:29;;;;;;;;;;;;;;;;;;349953;28;928;-63
2022/09/10 00:11:40;;;;;;;;;;;;;;;;;;350060;28;940;-63
2022/09/10 00:11:50;;;;;;;;;;;;;;;;;;350027;28;987;-63
2022/09/10 00:12:01;;;;;;;;;;;;;;;;;;349971;28;983;-63
2022/09/10 00:12:12;;;;;;;;;;;;;;;;;;350032;28;936;-63
2022/09/10 00:12:22;;;;;;;;;;;;;;;;;;350009;28;940;-63
2022/09/10 00:12:34;;;;;;;;;;;;;;;;;;349920;28;1011;-63
2022/09/10 00:12:47;;;;;;;;;;;;;;;;;;350068;28;865;-63
2022/09/10 00:12:57;;;;;;;;;;;;;;;;;;350027;28;948;-63
2022/09/10 00:13:08;;;;;;;;;;;;;;;;;;349950;28;920;-63
2022/09/10 00:13:19;;;;;;;;;;;;;;;;;;350024;28;956;-63
2022/09/10 00:13:30;;;;;;;;;;;;;;;;;;350002;28;980;-63
2022/09/10 00:13:40;;;;;;;;;;;;;;;;;;349931;28;1149;-63
2022/09/10 00:13:51;;;;;;;;;;;;;;;;;;350019;28;999;-63
2022/09/10 00:14:03;;;;;;;;;;;;;;;;;;350017;28;925;-63
2022/09/10 00:14:18;;;;;;;;;;;;;;;;;;350035;28;878;-63
2022/09/10 00:14:28;;;;;;;;;;;;;;;;;;350018;28;964;-63
2022/09/10 00:14:39;;;;;;;;;;;;;;;;;;349985;28;932;-63
2022/09/10 00:14:51;;;;;;;;;;;;;;;;;;349877;28;1392;-63
2022/09/10 00:15:03;;;;;;;;;;;;;;;;;;350007;28;999;-63
2022/09/10 00:15:14;;;;;;;;;;;;;;;;;;350019;28;1034;-63
2022/09/10 00:15:24;;;;;;;;;;;;;;;;;;350022;28;987;-63
2022/09/10 00:15:38;;;;;;;;;;;;;;;;;;349932;28;952;-63
2022/09/10 00:15:50;;;;;;;;;;;;;;;;;;350021;28;916;-63
2022/09/10 00:16:03;;;;;;;;;;;;;;;;;;350006;28;837;-63
2022/09/10 00:16:14;;;;;;;;;;;;;;;;;;350037;28;794;-63
2022/09/10 00:16:25;;;;;;;;;;;;;;;;;;349999;28;920;-63
2022/09/10 00:16:35;;;;;;;;;;;;;;;;;;350019;28;988;-63
2022/09/10 00:16:45;;;;;;;;;;;;;;;;;;349954;28;1041;-63
2022/09/10 00:16:56;;;;;;;;;;;;;;;;;;350012;28;932;-63
2022/09/10 00:17:06;;;;;;;;;;;;;;;;;;350034;28;996;-63
2022/09/10 00:17:16;;;;;;;;;;;;;;;;;;349990;28;813;-63
2022/09/10 00:17:26;;;;;;;;;;;;;;;;;;350000;28;925;-63
2022/09/10 00:17:37;;;;;;;;;;;;;;;;;;350038;28;996;-63
2022/09/10 00:17:48;;;;;;;;;;;;;;;;;;349912;28;940;-63
2022/09/10 00:17:58;;;;;;;;;;;;;;;;;;350042;28;908;-63
2022/09/10 00:18:10;;;;;;;;;;;;;;;;;;349950;28;933;-63
2022/09/10 00:18:21;;;;;;;;;;;;;;;;;;350032;28;771;-63
2022/09/10 00:18:33;;;;;;;;;;;;;;;;;;349954;28;858;-63
2022/09/10 00:18:43;;;;;;;;;;;;;;;;;;350000;28;925;-63
2022/09/10 00:18:56;;;;;;;;;;;;;;;;;;349981;28;983;-63
2022/09/10 00:19:06;;;;;;;;;;;;;;;;;;350004;28;992;-63
2022/09/10 00:19:17;;;;;;;;;;;;;;;;;;349956;28;1011;-63
2022/09/10 00:19:29;;;;;;;;;;;;;;;;;;350003;28;925;-63
2022/09/10 00:19:39;;;;;;;;;;;;;;;;;;349958;28;821;-63
2022/09/10 00:19:49;;;;;;;;;;;;;;;;;;349977;28;905;-63
2022/09/10 00:19:59;;;;;;;;;;;;;;;;;;350026;28;1015;-63
2022/09/10 00:20:09;;;;;;;;;;;;;;;;;;349956;28;915;-63
2022/09/10 00:20:20;;;;;;;;;;;;;;;;;;350030;28;806;-63
2022/09/10 00:20:30;;;;;;;;;;;;;;;;;;350031;28;916;-63
2022/09/10 00:20:43;;;;;;;;;;;;;;;;;;349990;28;869;-64
2022/09/10 00:20:54;;;;;;;;;;;;;;;;;;350233;28;1362;-63
2022/09/10 00:21:06;;;;;;;;;;;;;;;;;;351387;28;841;-63
2022/09/10 00:21:18;;;;;;;;;;;;;;;;;;351333;28;1031;-63
2022/09/10 00:21:28;;;;;;;;;;;;;;;;;;351406;28;996;-63
2022/09/10 00:21:39;;;;;;;;;;;;;;;;;;351367;28;936;-63
2022/09/10 00:21:49;;;;;;;;;;;;;;;;;;351340;28;897;-63
2022/09/10 00:21:59;;;;;;;;;;;;;;;;;;351428;28;935;-63
2022/09/10 00:22:11;;;;;;;;;;;;;;;;;;351437;28;857;-63
2022/09/10 00:22:21;;;;;;;;;;;;;;;;;;351376;28;932;-63
2022/09/10 00:22:32;;;;;;;;;;;;;;;;;;351475;28;886;-63
2022/09/10 00:22:42;;;;;;;;;;;;;;;;;;351412;28;979;-63
2022/09/10 00:22:53;;;;;;;;;;;;;;;;;;350598;28;1346;-63
2022/09/10 00:23:03;;;;;;;;;;;;;;;;;;348981;28;1328;-63
2022/09/10 00:23:14;;;;;;;;;;;;;;;;;;349927;28;959;-63
2022/09/10 00:23:25;;;;;;;;;;;;;;;;;;349951;28;1080;-63
2022/09/10 00:23:36;;;;;;;;;;;;;;;;;;350030;28;1091;-64
2022/09/10 00:23:47;;;;;;;;;;;;;;;;;;350026;28;968;-63
2022/09/10 00:23:57;;;;;;;;;;;;;;;;;;349933;28;944;-64
2022/09/10 00:24:07;;;;;;;;;;;;;;;;;;349988;28;865;-63
2022/09/10 00:24:17;;;;;;;;;;;;;;;;;;350043;28;967;-63
2022/09/10 00:24:28;;;;;;;;;;;;;;;;;;349980;28;925;-63
2022/09/10 00:24:38;;;;;;;;;;;;;;;;;;349994;28;940;-63
2022/09/10 00:24:48;;;;;;;;;;;;;;;;;;349994;28;913;-63
2022/09/10 00:24:58;;;;;;;;;;;;;;;;;;349931;28;1372;-63
2022/09/10 00:25:08;;;;;;;;;;;;;;;;;;349953;28;944;-63
2022/09/10 00:25:18;;;;;;;;;;;;;;;;;;349989;28;772;-63
2022/09/10 00:25:31;;;;;;;;;;;;;;;;;;350020;28;842;-64
2022/09/10 00:25:41;;;;;;;;;;;;;;;;;;350022;28;1003;-63
2022/09/10 00:25:53;;;;;;;;;;;;;;;;;;349993;28;916;-63
2022/09/10 00:26:10;;;;;;;;;;;;;;;;;;349994;28;1007;-63
2022/09/10 00:26:21;;;;;;;;;;;;;;;;;;350017;28;967;-64
2022/09/10 00:26:34;;;;;;;;;;;;;;;;;;349978;28;991;-63
2022/09/10 00:26:44;;;;;;;;;;;;;;;;;;349978;28;956;-63
2022/09/10 00:26:54;;;;;;;;;;;;;;;;;;350004;28;983;-63
2022/09/10 00:27:04;;;;;;;;;;;;;;;;;;349945;28;917;-63
2022/09/10 00:27:15;;;;;;;;;;;;;;;;;;349963;28;859;-63
2022/09/10 00:27:25;;;;;;;;;;;;;;;;;;350018;28;853;-63
2022/09/10 00:27:36;;;;;;;;;;;;;;;;;;350011;28;932;-63
2022/09/10 00:27:46;;;;;;;;;;;;;;;;;;350004;28;944;-64
2022/09/10 00:27:56;;;;;;;;;;;;;;;;;;349963;28;1086;-63
2022/09/10 00:28:07;;;;;;;;;;;;;;;;;;349975;28;963;-63
2022/09/10 00:28:18;;;;;;;;;;;;;;;;;;349985;28;813;-64
2022/09/10 00:28:28;;;;;;;;;;;;;;;;;;350007;28;952;-63
2022/09/10 00:28:38;;;;;;;;;;;;;;;;;;350036;28;967;-63
2022/09/10 00:28:49;;;;;;;;;;;;;;;;;;349969;28;900;-64
2022/09/10 00:29:00;;;;;;;;;;;;;;;;;;350010;28;964;-63
2022/09/10 00:29:10;;;;;;;;;;;;;;;;;;349999;28;924;-63
2022/09/10 00:29:21;;;;;;;;;;;;;;;;;;350034;28;924;-63
2022/09/10 00:29:32;;;;;;;;;;;;;;;;;;349998;28;992;-63
2022/09/10 00:29:42;;;;;;;;;;;;;;;;;;348442;28;1377;-63
2022/09/10 00:29:53;;;;;;;;;;;;;;;;;;348574;28;920;-64
2022/09/10 00:30:03;;;;;;;;;;;;;;;;;;348607;28;956;-63
2022/09/10 00:30:13;;;;;;;;;;;;;;;;;;348557;28;920;-63
2022/09/10 00:30:26;;;;;;;;;;;;;;;;;;348536;28;1906;-64
2022/09/10 00:30:40;;;;;;;;;;;;;;;;;;348635;28;902;-63
2022/09/10 00:30:51;;;;;;;;;;;;;;;;;;348616;28;842;-64
2022/09/10 00:31:02;;;;;;;;;;;;;;;;;;348672;28;1107;-63
2022/09/10 00:31:12;;;;;;;;;;;;;;;;;;348639;28;976;-63
2022/09/10 00:31:23;;;;;;;;;;;;;;;;;;348643;28;1019;-63
2022/09/10 00:31:33;;;;;;;;;;;;;;;;;;348616;28;865;-63
2022/09/10 00:31:44;;;;;;;;;;;;;;;;;;348610;28;1171;-63
2022/09/10 00:31:54;;;;;;;;;;;;;;;;;;348546;28;868;-64
2022/09/10 00:32:04;;;;;;;;;;;;;;;;;;348621;28;924;-63
2022/09/10 00:32:14;;;;;;;;;;;;;;;;;;348528;28;913;-64
2022/09/10 00:32:25;;;;;;;;;;;;;;;;;;348591;28;1019;-63
2022/09/10 00:32:37;;;;;;;;;;;;;;;;;;348635;28;924;-63
2022/09/10 00:32:51;;;;;;;;;;;;;;;;;;348639;28;936;-63
2022/09/10 00:33:01;;;;;;;;;;;;;;;;;;348575;28;987;-64
2022/09/10 00:33:12;;;;;;;;;;;;;;;;;;348589;28;834;-63
2022/09/10 00:33:23;;;;;;;;;;;;;;;;;;348657;28;849;-63
2022/09/10 00:33:33;;;;;;;;;;;;;;;;;;348646;28;873;-63
2022/09/10 00:33:44;;;;;;;;;;;;;;;;;;348623;28;909;-63
2022/09/10 00:33:54;;;;;;;;;;;;;;;;;;348597;28;814;-63
2022/09/10 00:34:04;;;;;;;;;;;;;;;;;;348613;28;1061;-64
2022/09/10 00:34:15;;;;;;;;;;;;;;;;;;348671;28;916;-63
2022/09/10 00:34:25;;;;;;;;;;;;;;;;;;348574;28;983;-63
2022/09/10 00:34:36;;;;;;;;;;;;;;;;;;348597;28;1114;-63
2022/09/10 00:34:47;;;;;;;;;;;;;;;;;;348565;28;921;-64
2022/09/10 00:35:00;;;;;;;;;;;;;;;;;;348600;28;909;-63
2022/09/10 00:35:10;;;;;;;;;;;;;;;;;;348640;28;877;-64
2022/09/10 00:35:20;;;;;;;;;;;;;;;;;;348615;28;933;-63
2022/09/10 00:35:31;;;;;;;;;;;;;;;;;;348614;28;849;-63
2022/09/10 00:35:42;;;;;;;;;;;;;;;;;;348545;28;1035;-63
2022/09/10 00:35:52;;;;;;;;;;;;;;;;;;348637;28;779;-63
2022/09/10 00:36:04;;;;;;;;;;;;;;;;;;348576;28;905;-63
2022/09/10 00:36:26;;;;;;;;;;;;;;;;;;348626;28;889;-63
2022/09/10 00:36:39;;;;;;;;;;;;;;;;;;348572;28;945;-63
2022/09/10 00:36:49;;;;;;;;;;;;;;;;;;348639;28;905;-63
2022/09/10 00:37:00;;;;;;;;;;;;;;;;;;348602;28;897;-63
2022/09/10 00:37:10;;;;;;;;;;;;;;;;;;348620;28;897;-63
2022/09/10 00:37:20;;;;;;;;;;;;;;;;;;348629;28;778;-63
2022/09/10 00:37:31;;;;;;;;;;;;;;;;;;348591;28;917;-63
2022/09/10 00:37:41;;;;;;;;;;;;;;;;;;348566;28;774;-63
2022/09/10 00:37:51;;;;;;;;;;;;;;;;;;348680;28;921;-63
2022/09/10 00:38:02;;;;;;;;;;;;;;;;;;348596;28;956;-63
2022/09/10 00:38:13;;;;;;;;;;;;;;;;;;348668;28;905;-63
2022/09/10 00:38:24;;;;;;;;;;;;;;;;;;348579;28;905;-63
2022/09/10 00:38:34;;;;;;;;;;;;;;;;;;348554;28;905;-63
2022/09/10 00:38:45;;;;;;;;;;;;;;;;;;348665;28;842;-63
2022/09/10 00:38:57;;;;;;;;;;;;;;;;;;348664;28;987;-63
2022/09/10 00:39:12;;;;;;;;;;;;;;;;;;348659;28;857;-63
2022/09/10 00:39:22;;;;;;;;;;;;;;;;;;348586;28;1060;-63
2022/09/10 00:39:33;;;;;;;;;;;;;;;;;;348589;28;988;-63
2022/09/10 00:39:43;;;;;;;;;;;;;;;;;;348601;28;1008;-64
2022/09/10 00:39:54;;;;;;;;;;;;;;;;;;348643;28;798;-63
2022/09/10 00:40:05;;;;;;;;;;;;;;;;;;348608;28;841;-63
2022/09/10 00:40:15;;;;;;;;;;;;;;;;;;348542;28;1152;-63
2022/09/10 00:40:25;;;;;;;;;;;;;;;;;;348622;28;921;-63
2022/09/10 00:40:36;;;;;;;;;;;;;;;;;;348645;28;1913;-63
2022/09/10 00:40:46;;;;;;;;;;;;;;;;;;351412;28;1259;-63
2022/09/10 00:41:03;;;;;;;;;;;;;;;;;;351394;28;845;-63
2022/09/10 00:41:14;;;;;;;;;;;;;;;;;;351352;28;874;-63
2022/09/10 00:41:24;;;;;;;;;;;;;;;;;;351400;28;916;-63
2022/09/10 00:41:36;;;;;;;;;;;;;;;;;;350196;28;1891;-63
2022/09/10 00:41:47;;;;;;;;;;;;;;;;;;351336;28;983;-63
2022/09/10 00:41:57;;;;;;;;;;;;;;;;;;351429;28;853;-63
2022/09/10 00:42:10;;;;;;;;;;;;;;;;;;351375;28;885;-63
2022/09/10 00:42:21;;;;;;;;;;;;;;;;;;351370;28;960;-63
2022/09/10 00:42:31;;;;;;;;;;;;;;;;;;351441;28;833;-63
2022/09/10 00:42:42;;;;;;;;;;;;;;;;;;351349;28;958;-63
2022/09/10 00:42:52;;;;;;;;;;;;;;;;;;351368;28;873;-63
2022/09/10 00:43:04;;;;;;;;;;;;;;;;;;351377;28;937;-63
2022/09/10 00:43:18;;;;;;;;;;;;;;;;;;351333;28;1007;-63
2022/09/10 00:43:44;;;;;;;;;;;;;;;;;;351371;28;892;-63
2022/09/10 00:43:58;;;;;;;;;;;;;;;;;;351322;28;979;-63
2022/09/10 00:44:27;;;;;;;;;;;;;;;;;;351339;28;952;-63
2022/09/10 00:44:40;;;;;;;;;;;;;;;;;;348564;28;933;-63
2022/09/10 00:44:56;;;;;;;;;;;;;;;;;;348567;28;988;-63
2022/09/10 00:45:07;;;;;;;;;;;;;;;;;;348557;28;996;-63
2022/09/10 00:45:19;;;;;;;;;;;;;;;;;;348586;28;992;-63
2022/09/10 00:45:31;;;;;;;;;;;;;;;;;;348592;28;967;-64
2022/09/10 00:45:42;;;;;;;;;;;;;;;;;;348596;28;992;-63
2022/09/10 00:45:54;;;;;;;;;;;;;;;;;;348591;28;1090;-63
2022/09/10 00:46:04;;;;;;;;;;;;;;;;;;348589;28;980;-63
2022/09/10 00:46:18;;;;;;;;;;;;;;;;;;348555;28;976;-63
2022/09/10 00:46:34;;;;;;;;;;;;;;;;;;348589;28;913;-63
2022/09/10 00:46:49;;;;;;;;;;;;;;;;;;348582;28;1127;-63
2022/09/10 00:46:59;;;;;;;;;;;;;;;;;;348538;28;944;-63
2022/09/10 00:47:18;;;;;;;;;;;;;;;;;;348602;28;913;-63
2022/09/10 00:47:32;;;;;;;;;;;;;;;;;;348624;28;795;-63
2022/09/10 00:47:45;;;;;;;;;;;;;;;;;;348609;28;865;-63
2022/09/10 00:47:58;;;;;;;;;;;;;;;;;;348604;28;949;-63
2022/09/10 00:48:29;;;;;;;;;;;;;;;;;;348640;28;988;-63
2022/09/10 00:48:40;;;;;;;;;;;;;;;;;;348569;28;1003;-63
2022/09/10 00:48:51;;;;;;;;;;;;;;;;;;348593;28;964;-63
2022/09/10 00:49:04;;;;;;;;;;;;;;;;;;348531;28;1012;-63
2022/09/10 00:49:21;;;;;;;;;;;;;;;;;;348581;28;937;-63
2022/09/10 00:49:33;;;;;;;;;;;;;;;;;;348571;28;920;-63
2022/09/10 00:49:46;;;;;;;;;;;;;;;;;;348581;28;929;-63
2022/09/10 00:50:00;;;;;;;;;;;;;;;;;;348629;28;860;-63
2022/09/10 00:50:28;;;;;;;;;;;;;;;;;;348605;28;905;-63
2022/09/10 00:50:40;;;;;;;;;;;;;;;;;;348585;28;933;-63
2022/09/10 00:50:50;;;;;;;;;;;;;;;;;;348618;28;897;-63
2022/09/10 00:51:03;;;;;;;;;;;;;;;;;;348468;28;928;-63
2022/09/10 00:51:13;;;;;;;;;;;;;;;;;;348550;28;793;-63
2022/09/10 00:51:25;;;;;;;;;;;;;;;;;;348596;28;933;-63
2022/09/10 00:51:35;;;;;;;;;;;;;;;;;;348591;28;916;-63
2022/09/10 00:51:47;;;;;;;;;;;;;;;;;;348532;28;985;-63
2022/09/10 00:51:57;;;;;;;;;;;;;;;;;;348627;28;849;-63
2022/09/10 00:52:08;;;;;;;;;;;;;;;;;;348619;28;860;-63
2022/09/10 00:52:18;;;;;;;;;;;;;;;;;;348569;28;963;-63
2022/09/10 00:52:29;;;;;;;;;;;;;;;;;;348634;28;815;-63
2022/09/10 00:52:39;;;;;;;;;;;;;;;;;;348521;28;1012;-63
2022/09/10 00:52:51;;;;;;;;;;;;;;;;;;348627;28;850;-63
2022/09/10 00:53:03;;;;;;;;;;;;;;;;;;348605;28;896;-63
2022/09/10 00:53:17;;;;;;;;;;;;;;;;;;348586;28;922;-63
2022/09/10 00:53:27;;;;;;;;;;;;;;;;;;348529;28;1024;-63
2022/09/10 00:53:38;;;;;;;;;;;;;;;;;;348605;28;893;-63
2022/09/10 00:53:49;;;;;;;;;;;;;;;;;;348635;28;1673;-63
2022/09/10 00:54:00;;;;;;;;;;;;;;;;;;348623;28;936;-63
2022/09/10 00:54:11;;;;;;;;;;;;;;;;;;348537;28;839;-63
2022/09/10 00:54:24;;;;;;;;;;;;;;;;;;348620;28;1090;-63
2022/09/10 00:54:35;;;;;;;;;;;;;;;;;;348595;28;916;-63
2022/09/10 00:54:46;;;;;;;;;;;;;;;;;;348592;28;1125;-63
2022/09/10 00:54:58;;;;;;;;;;;;;;;;;;348609;28;869;-63
2022/09/10 00:55:10;;;;;;;;;;;;;;;;;;348616;28;952;-63
2022/09/10 00:55:21;;;;;;;;;;;;;;;;;;348571;28;975;-63
2022/09/10 00:55:33;;;;;;;;;;;;;;;;;;348583;28;801;-63
2022/09/10 00:55:46;;;;;;;;;;;;;;;;;;348556;28;925;-63
2022/09/10 00:55:58;;;;;;;;;;;;;;;;;;348609;28;790;-63
2022/09/10 00:56:09;;;;;;;;;;;;;;;;;;348615;28;929;-63
2022/09/10 00:56:19;;;;;;;;;;;;;;;;;;348634;28;855;-64
2022/09/10 00:56:30;;;;;;;;;;;;;;;;;;348536;28;976;-63
2022/09/10 00:56:41;;;;;;;;;;;;;;;;;;348646;28;972;-63
2022/09/10 00:56:53;;;;;;;;;;;;;;;;;;348655;28;848;-62
2022/09/10 00:57:06;;;;;;;;;;;;;;;;;;348521;28;996;-63
2022/09/10 00:57:19;;;;;;;;;;;;;;;;;;348544;28;913;-63
2022/09/10 00:57:29;;;;;;;;;;;;;;;;;;348594;28;862;-62
2022/09/10 00:57:40;;;;;;;;;;;;;;;;;;348575;28;905;-63
2022/09/10 00:57:53;;;;;;;;;;;;;;;;;;348612;28;826;-63
2022/09/10 00:58:05;;;;;;;;;;;;;;;;;;348632;28;889;-63
2022/09/10 00:58:17;;;;;;;;;;;;;;;;;;348574;28;921;-63
2022/09/10 00:58:27;;;;;;;;;;;;;;;;;;348513;28;944;-63
2022/09/10 00:58:38;;;;;;;;;;;;;;;;;;348592;28;921;-63
2022/09/10 00:58:48;;;;;;;;;;;;;;;;;;348599;28;916;-62
2022/09/10 00:58:59;;;;;;;;;;;;;;;;;;348517;28;1121;-63
2022/09/10 00:59:13;;;;;;;;;;;;;;;;;;348541;28;1301;-63
2022/09/10 00:59:25;;;;;;;;;;;;;;;;;;348540;28;1023;-63
2022/09/10 00:59:35;;;;;;;;;;;;;;;;;;348544;28;794;-63
2022/09/10 00:59:47;;;;;;;;;;;;;;;;;;348575;28;787;-63
2022/09/10 01:00:00;;;;;;;;;;;;;;;;;;348604;28;928;-63
2022/09/10 01:00:11;;;;;;;;;;;;;;;;;;348624;28;933;-63
2022/09/10 01:00:22;;;;;;;;;;;;;;;;;;348606;28;925;-63
2022/09/10 01:00:32;;;;;;;;;;;;;;;;;;348542;28;983;-63
2022/09/10 01:00:42;;;;;;;;;;;;;;;;;;348597;28;1023;-63
2022/09/10 01:00:54;;;;;;;;;;;;;;;;;;348592;28;988;-63
2022/09/10 01:01:05;;;;;;;;;;;;;;;;;;348624;28;841;-63
2022/09/10 01:01:16;;;;;;;;;;;;;;;;;;348508;28;996;-63
2022/09/10 01:01:26;;;;;;;;;;;;;;;;;;348577;28;952;-63
2022/09/10 01:01:37;;;;;;;;;;;;;;;;;;348556;28;928;-63
2022/09/10 01:01:48;;;;;;;;;;;;;;;;;;348594;28;932;-62
2022/09/10 01:02:01;;;;;;;;;;;;;;;;;;348534;28;976;-64
2022/09/10 01:02:11;;;;;;;;;;;;;;;;;;348592;28;948;-63
2022/09/10 01:02:21;;;;;;;;;;;;;;;;;;348616;28;984;-63
2022/09/10 01:02:32;;;;;;;;;;;;;;;;;;348579;28;999;-63
2022/09/10 01:02:43;;;;;;;;;;;;;;;;;;348475;28;976;-63
2022/09/10 01:02:54;;;;;;;;;;;;;;;;;;348416;28;812;-63
2022/09/10 01:03:05;;;;;;;;;;;;;;;;;;348418;28;995;-63
2022/09/10 01:03:15;;;;;;;;;;;;;;;;;;348651;28;881;-63
2022/09/10 01:03:28;;;;;;;;;;;;;;;;;;348554;28;1007;-63
2022/09/10 01:03:39;;;;;;;;;;;;;;;;;;348530;28;1000;-63
2022/09/10 01:03:49;;;;;;;;;;;;;;;;;;348505;28;1307;-64
2022/09/10 01:04:01;;;;;;;;;;;;;;;;;;348571;28;1016;-63
2022/09/10 01:04:11;;;;;;;;;;;;;;;;;;348562;28;956;-63
2022/09/10 01:04:21;;;;;;;;;;;;;;;;;;348582;28;940;-63
2022/09/10 01:04:32;;;;;;;;;;;;;;;;;;348612;28;1003;-63
2022/09/10 01:04:43;;;;;;;;;;;;;;;;;;348615;28;854;-63
2022/09/10 01:04:54;;;;;;;;;;;;;;;;;;348633;28;798;-63
2022/09/10 01:05:06;;;;;;;;;;;;;;;;;;348610;28;858;-63
2022/09/10 01:05:16;;;;;;;;;;;;;;;;;;348491;28;1085;-63
2022/09/10 01:05:28;;;;;;;;;;;;;;;;;;348637;28;929;-63
2022/09/10 01:05:41;;;;;;;;;;;;;;;;;;348518;28;856;-63
2022/09/10 01:05:51;;;;;;;;;;;;;;;;;;348579;28;941;-63
2022/09/10 01:06:02;;;;;;;;;;;;;;;;;;348589;28;885;-63
2022/09/10 01:06:12;;;;;;;;;;;;;;;;;;348577;28;857;-63
2022/09/10 01:06:23;;;;;;;;;;;;;;;;;;348558;28;916;-63
2022/09/10 01:06:33;;;;;;;;;;;;;;;;;;348563;28;972;-63
2022/09/10 01:06:45;;;;;;;;;;;;;;;;;;348548;28;888;-63
2022/09/10 01:06:55;;;;;;;;;;;;;;;;;;348593;28;1015;-63
2022/09/10 01:07:08;;;;;;;;;;;;;;;;;;348563;28;1003;-63
2022/09/10 01:07:20;;;;;;;;;;;;;;;;;;348639;28;818;-63
2022/09/10 01:07:31;;;;;;;;;;;;;;;;;;348536;28;975;-63
2022/09/10 01:07:42;;;;;;;;;;;;;;;;;;348490;28;1007;-63
2022/09/10 01:07:53;;;;;;;;;;;;;;;;;;348587;28;929;-63
2022/09/10 01:08:03;;;;;;;;;;;;;;;;;;348595;28;940;-63
2022/09/10 01:08:14;;;;;;;;;;;;;;;;;;348598;28;960;-63
2022/09/10 01:08:26;;;;;;;;;;;;;;;;;;348511;28;1039;-63
2022/09/10 01:08:36;;;;;;;;;;;;;;;;;;348578;28;933;-63
2022/09/10 01:08:46;;;;;;;;;;;;;;;;;;348581;28;987;-63
2022/09/10 01:08:57;;;;;;;;;;;;;;;;;;348498;28;1003;-63
2022/09/10 01:09:08;;;;;;;;;;;;;;;;;;348590;28;787;-63
2022/09/10 01:09:18;;;;;;;;;;;;;;;;;;348571;28;976;-63
2022/09/10 01:09:29;;;;;;;;;;;;;;;;;;348543;28;1059;-63
2022/09/10 01:09:39;;;;;;;;;;;;;;;;;;348589;28;956;-62
2022/09/10 01:09:50;;;;;;;;;;;;;;;;;;348583;28;972;-63
2022/09/10 01:10:03;;;;;;;;;;;;;;;;;;348559;28;791;-63
2022/09/10 01:10:16;;;;;;;;;;;;;;;;;;348615;28;933;-63
2022/09/10 01:10:29;;;;;;;;;;;;;;;;;;348502;28;1906;-63
2022/09/10 01:11:05;;;;;;;;;;;;;;;;;;348905;28;2077;-63
2022/09/10 01:11:25;;;;;;;;;;;;;;;;;;351359;28;1190;-63
2022/09/10 01:11:36;;;;;;;;;;;;;;;;;;351434;28;892;-62
2022/09/10 01:12:05;;;;;;;;;;;;;;;;;;351310;28;1123;-63
2022/09/10 01:12:18;;;;;;;;;;;;;;;;;;351367;28;936;-63
2022/09/10 01:12:44;;;;;;;;;;;;;;;;;;351303;28;924;-63
2022/09/10 01:13:12;;;;;;;;;;;;;;;;;;351352;28;880;-63
2022/09/10 01:13:41;;;;;;;;;;;;;;;;;;351300;28;975;-63
2022/09/10 01:14:14;;;;;;;;;;;;;;;;;;350508;28;1339;-63
2022/09/10 01:14:25;;;;;;;;;;;;;;;;;;350015;28;980;-63
2022/09/10 01:14:42;;;;;;;;;;;;;;;;;;349959;28;941;-63
2022/09/10 01:15:01;;;;;;;;;;;;;;;;;;349837;28;1384;-63
2022/09/10 01:15:12;;;;;;;;;;;;;;;;;;349964;28;813;-63
2022/09/10 01:15:28;;;;;;;;;;;;;;;;;;349963;28;1008;-63
2022/09/10 01:15:41;;;;;;;;;;;;;;;;;;349913;28;1002;-63
2022/09/10 01:16:06;;;;;;;;;;;;;;;;;;349945;28;975;-63
2022/09/10 01:16:32;;;;;;;;;;;;;;;;;;349989;28;928;-63
2022/09/10 01:17:02;;;;;;;;;;;;;;;;;;349998;28;865;-63
2022/09/10 01:17:12;;;;;;;;;;;;;;;;;;349997;28;951;-63
2022/09/10 01:17:29;;;;;;;;;;;;;;;;;;349979;28;895;-63
2022/09/10 01:17:59;;;;;;;;;;;;;;;;;;349963;28;955;-63
2022/09/10 01:18:17;;;;;;;;;;;;;;;;;;349802;28;1173;-63
2022/09/10 01:18:43;;;;;;;;;;;;;;;;;;349958;28;1007;-63
2022/09/10 01:19:02;;;;;;;;;;;;;;;;;;349915;28;959;-63
2022/09/10 01:19:24;;;;;;;;;;;;;;;;;;349938;28;875;-63
2022/09/10 01:19:49;;;;;;;;;;;;;;;;;;349946;28;931;-63
2022/09/10 01:20:18;;;;;;;;;;;;;;;;;;349922;28;924;-63
2022/09/10 01:20:43;;;;;;;;;;;;;;;;;;349945;28;1183;-63
2022/09/10 01:21:09;;;;;;;;;;;;;;;;;;350163;28;1363;-63
2022/09/10 01:21:38;;;;;;;;;;;;;;;;;;351377;28;908;-63
2022/09/10 01:21:48;;;;;;;;;;;;;;;;;;351317;28;940;-63
2022/09/10 01:21:58;;;;;;;;;;;;;;;;;;351313;28;904;-63
2022/09/10 01:22:27;;;;;;;;;;;;;;;;;;351324;28;1031;-63
2022/09/10 01:22:58;;;;;;;;;;;;;;;;;;351310;28;841;-63
2022/09/10 01:23:31;;;;;;;;;;;;;;;;;;351365;28;932;-63
2022/09/10 01:24:01;;;;;;;;;;;;;;;;;;351352;28;979;-63
2022/09/10 01:24:29;;;;;;;;;;;;;;;;;;351279;28;948;-63
2022/09/10 01:24:40;;;;;;;;;;;;;;;;;;351292;28;904;-63
2022/09/10 01:25:09;;;;;;;;;;;;;;;;;;351361;28;1053;-63
2022/09/10 01:25:21;;;;;;;;;;;;;;;;;;349691;28;1391;-63
2022/09/10 01:25:49;;;;;;;;;;;;;;;;;;349481;28;1039;-63
2022/09/10 01:26:11;;;;;;;;;;;;;;;;;;349871;28;976;-63
2022/09/10 01:26:39;;;;;;;;;;;;;;;;;;349935;28;1059;-63
2022/09/10 01:26:58;;;;;;;;;;;;;;;;;;349921;28;983;-63
2022/09/10 01:27:23;;;;;;;;;;;;;;;;;;349894;28;933;-63
2022/09/10 01:27:38;;;;;;;;;;;;;;;;;;349983;28;990;-63
2022/09/10 01:27:53;;;;;;;;;;;;;;;;;;349968;28;971;-63
2022/09/10 01:28:08;;;;;;;;;;;;;;;;;;349918;28;923;-63
2022/09/10 01:28:24;;;;;;;;;;;;;;;;;;350005;28;996;-63
2022/09/10 01:28:53;;;;;;;;;;;;;;;;;;349866;28;975;-63
2022/09/10 01:29:17;;;;;;;;;;;;;;;;;;349872;28;1018;-63
2022/09/10 01:29:31;;;;;;;;;;;;;;;;;;349937;28;932;-63
2022/09/10 01:30:02;;;;;;;;;;;;;;;;;;349931;28;856;-63
2022/09/10 01:30:16;;;;;;;;;;;;;;;;;;349854;28;991;-63
2022/09/10 01:30:33;;;;;;;;;;;;;;;;;;349860;28;1972;-63
2022/09/10 01:30:47;;;;;;;;;;;;;;;;;;349857;28;979;-63
2022/09/10 01:31:01;;;;;;;;;;;;;;;;;;350007;28;1067;-63
2022/09/10 01:31:37;;;;;;;;;;;;;;;;;;349838;28;1200;-63